sensor_id;sensor_type;location;lat;lon;timestamp;temperature;humidity
5806;DHT22;2929;50.810;8.342;2023-04-25T00:00:51;5.10;99.90
5806;DHT22;2929;50.810;8.342;2023-04-25T00:03:19;5.00;99.90
5806;DHT22;2929;50.810;8.342;2023-04-25T00:05:46;4.90;99.90
5806;DHT22;2929;50.810;8.342;2023-04-25T00:08:14;4.70;99.90
5806;DHT22;2929;50.810;8.342;2023-04-25T00:10:41;4.60;99.90
5806;DHT22;2929;50.810;8.342;2023-04-25T00:13:08;4.50;99.90
5806;DHT22;2929;50.810;8.342;2023-04-25T00:15:37;4.50;99.90
5806;DHT22;2929;50.810;8.342;2023-04-25T00:18:05;4.50;99.90
5806;DHT22;2929;50.810;8.342;2023-04-25T00:20:32;4.50;99.90
5806;DHT22;2929;50.810;8.342;2023-04-25T00:23:00;4.50;99.90
5806;DHT22;2929;50.810;8.342;2023-04-25T00:25:27;4.40;99.90
5806;DHT22;2929;50.810;8.342;2023-04-25T00:27:54;4.40;99.90
5806;DHT22;2929;50.810;8.342;2023-04-25T00:30:21;4.60;99.90
5806;DHT22;2929;50.810;8.342;2023-04-25T00:32:48;4.60;99.90
5806;DHT22;2929;50.810;8.342;2023-04-25T00:35:17;4.70;99.90
5806;DHT22;2929;50.810;8.342;2023-04-25T00:37:44;4.70;99.90
5806;DHT22;2929;50.810;8.342;2023-04-25T00:40:11;4.70;99.90
5806;DHT22;2929;50.810;8.342;2023-04-25T00:42:39;4.60;99.90
5806;DHT22;2929;50.810;8.342;2023-04-25T00:45:09;4.60;99.90
5806;DHT22;2929;50.810;8.342;2023-04-25T00:47:40;4.70;99.90
5806;DHT22;2929;50.810;8.342;2023-04-25T00:50:08;4.60;99.90
5806;DHT22;2929;50.810;8.342;2023-04-25T00:52:37;4.60;99.90
5806;DHT22;2929;50.810;8.342;2023-04-25T00:55:05;4.60;99.90
5806;DHT22;2929;50.810;8.342;2023-04-25T00:57:33;4.70;99.90
5806;DHT22;2929;50.810;8.342;2023-04-25T01:00:01;4.50;99.90
5806;DHT22;2929;50.810;8.342;2023-04-25T01:02:29;4.50;99.90
5806;DHT22;2929;50.810;8.342;2023-04-25T01:04:56;4.40;99.90
5806;DHT22;2929;50.810;8.342;2023-04-25T01:07:24;4.50;99.90
5806;DHT22;2929;50.810;8.342;2023-04-25T01:09:52;4.40;99.90
5806;DHT22;2929;50.810;8.342;2023-04-25T01:12:20;4.50;99.90
5806;DHT22;2929;50.810;8.342;2023-04-25T01:14:47;4.50;99.90
5806;DHT22;2929;50.810;8.342;2023-04-25T01:17:14;4.40;99.90
5806;DHT22;2929;50.810;8.342;2023-04-25T01:19:41;4.40;99.90
5806;DHT22;2929;50.810;8.342;2023-04-25T01:22:10;4.30;99.90
5806;DHT22;2929;50.810;8.342;2023-04-25T01:24:37;4.30;99.90
5806;DHT22;2929;50.810;8.342;2023-04-25T01:27:05;4.10;99.90
5806;DHT22;2929;50.810;8.342;2023-04-25T01:29:32;4.20;99.90
5806;DHT22;2929;50.810;8.342;2023-04-25T01:32:00;4.20;99.90
5806;DHT22;2929;50.810;8.342;2023-04-25T01:34:28;4.10;99.90
5806;DHT22;2929;50.810;8.342;2023-04-25T01:36:59;4.00;99.90
5806;DHT22;2929;50.810;8.342;2023-04-25T01:39:29;4.00;99.90
5806;DHT22;2929;50.810;8.342;2023-04-25T01:41:57;4.00;99.90
5806;DHT22;2929;50.810;8.342;2023-04-25T01:44:25;3.90;99.90
5806;DHT22;2929;50.810;8.342;2023-04-25T01:46:53;3.80;99.90
5806;DHT22;2929;50.810;8.342;2023-04-25T01:49:20;3.80;99.90
5806;DHT22;2929;50.810;8.342;2023-04-25T01:51:48;3.70;99.90
5806;DHT22;2929;50.810;8.342;2023-04-25T01:54:15;3.70;99.90
5806;DHT22;2929;50.810;8.342;2023-04-25T01:56:49;3.70;99.90
5806;DHT22;2929;50.810;8.342;2023-04-25T01:59:16;3.80;99.90
5806;DHT22;2929;50.810;8.342;2023-04-25T02:02:05;3.70;99.90
5806;DHT22;2929;50.810;8.342;2023-04-25T02:04:34;3.70;99.90
5806;DHT22;2929;50.810;8.342;2023-04-25T02:07:03;3.70;99.90
5806;DHT22;2929;50.810;8.342;2023-04-25T02:09:45;3.90;99.90
5806;DHT22;2929;50.810;8.342;2023-04-25T02:12:14;4.10;99.90
5806;DHT22;2929;50.810;8.342;2023-04-25T02:14:53;4.10;99.90
5806;DHT22;2929;50.810;8.342;2023-04-25T02:17:26;4.20;99.90
5806;DHT22;2929;50.810;8.342;2023-04-25T02:19:53;4.30;99.90
5806;DHT22;2929;50.810;8.342;2023-04-25T02:22:20;4.40;99.90
5806;DHT22;2929;50.810;8.342;2023-04-25T02:24:47;4.50;99.90
5806;DHT22;2929;50.810;8.342;2023-04-25T02:27:16;4.50;99.90
5806;DHT22;2929;50.810;8.342;2023-04-25T02:29:43;4.50;99.90
5806;DHT22;2929;50.810;8.342;2023-04-25T02:32:10;4.50;99.90
5806;DHT22;2929;50.810;8.342;2023-04-25T02:34:37;4.60;99.90
5806;DHT22;2929;50.810;8.342;2023-04-25T02:37:05;4.70;99.90
5806;DHT22;2929;50.810;8.342;2023-04-25T02:39:32;4.70;99.90
5806;DHT22;2929;50.810;8.342;2023-04-25T02:41:59;4.70;99.90
5806;DHT22;2929;50.810;8.342;2023-04-25T02:44:30;4.90;99.90
5806;DHT22;2929;50.810;8.342;2023-04-25T02:46:57;4.90;99.90
5806;DHT22;2929;50.810;8.342;2023-04-25T02:49:24;4.90;99.90
5806;DHT22;2929;50.810;8.342;2023-04-25T02:51:51;4.80;99.90
5806;DHT22;2929;50.810;8.342;2023-04-25T02:54:19;4.80;99.90
5806;DHT22;2929;50.810;8.342;2023-04-25T02:56:47;4.90;99.90
5806;DHT22;2929;50.810;8.342;2023-04-25T02:59:20;4.90;99.90
5806;DHT22;2929;50.810;8.342;2023-04-25T03:01:48;4.90;99.90
5806;DHT22;2929;50.810;8.342;2023-04-25T03:04:15;4.90;99.90
5806;DHT22;2929;50.810;8.342;2023-04-25T03:06:44;4.90;99.90
5806;DHT22;2929;50.810;8.342;2023-04-25T03:09:12;4.80;99.90
5806;DHT22;2929;50.810;8.342;2023-04-25T03:11:39;4.90;99.90
5806;DHT22;2929;50.810;8.342;2023-04-25T03:14:06;4.90;99.90
5806;DHT22;2929;50.810;8.342;2023-04-25T03:16:33;4.80;99.90
5806;DHT22;2929;50.810;8.342;2023-04-25T03:19:02;4.70;99.90
5806;DHT22;2929;50.810;8.342;2023-04-25T03:21:29;4.70;99.90
5806;DHT22;2929;50.810;8.342;2023-04-25T03:23:57;4.70;99.90
5806;DHT22;2929;50.810;8.342;2023-04-25T03:26:24;4.60;99.90
5806;DHT22;2929;50.810;8.342;2023-04-25T03:28:51;4.60;99.90
5806;DHT22;2929;50.810;8.342;2023-04-25T03:31:19;4.60;99.90
5806;DHT22;2929;50.810;8.342;2023-04-25T03:33:46;4.60;99.90
5806;DHT22;2929;50.810;8.342;2023-04-25T03:36:15;4.60;99.90
5806;DHT22;2929;50.810;8.342;2023-04-25T03:38:42;4.70;99.90
5806;DHT22;2929;50.810;8.342;2023-04-25T03:41:11;4.60;99.90
5806;DHT22;2929;50.810;8.342;2023-04-25T03:43:48;4.50;99.90
5806;DHT22;2929;50.810;8.342;2023-04-25T03:46:16;4.50;99.90
5806;DHT22;2929;50.810;8.342;2023-04-25T03:48:44;4.50;99.90
5806;DHT22;2929;50.810;8.342;2023-04-25T03:51:19;4.50;99.90
5806;DHT22;2929;50.810;8.342;2023-04-25T03:53:47;4.40;99.90
5806;DHT22;2929;50.810;8.342;2023-04-25T03:56:14;4.30;99.90
5806;DHT22;2929;50.810;8.342;2023-04-25T03:58:43;4.30;99.90
5806;DHT22;2929;50.810;8.342;2023-04-25T04:01:10;4.40;99.90
5806;DHT22;2929;50.810;8.342;2023-04-25T04:03:39;4.40;99.90
5806;DHT22;2929;50.810;8.342;2023-04-25T04:06:07;4.40;99.90
5806;DHT22;2929;50.810;8.342;2023-04-25T04:08:40;4.30;99.90
5806;DHT22;2929;50.810;8.342;2023-04-25T04:11:09;4.30;99.90
5806;DHT22;2929;50.810;8.342;2023-04-25T04:13:36;4.30;99.90
5806;DHT22;2929;50.810;8.342;2023-04-25T04:16:05;4.20;99.90
5806;DHT22;2929;50.810;8.342;2023-04-25T04:18:32;4.10;99.90
5806;DHT22;2929;50.810;8.342;2023-04-25T04:20:59;4.20;99.90
5806;DHT22;2929;50.810;8.342;2023-04-25T04:23:29;4.20;99.90
5806;DHT22;2929;50.810;8.342;2023-04-25T04:25:59;4.20;99.90
5806;DHT22;2929;50.810;8.342;2023-04-25T04:28:41;4.30;99.90
5806;DHT22;2929;50.810;8.342;2023-04-25T04:31:22;4.30;99.90
5806;DHT22;2929;50.810;8.342;2023-04-25T04:33:50;4.30;99.90
5806;DHT22;2929;50.810;8.342;2023-04-25T04:36:18;4.40;99.90
5806;DHT22;2929;50.810;8.342;2023-04-25T04:38:48;4.40;99.90
5806;DHT22;2929;50.810;8.342;2023-04-25T04:41:33;4.40;99.90
5806;DHT22;2929;50.810;8.342;2023-04-25T04:44:10;4.40;99.90
5806;DHT22;2929;50.810;8.342;2023-04-25T04:46:56;4.40;99.90
5806;DHT22;2929;50.810;8.342;2023-04-25T04:49:52;4.40;99.90
5806;DHT22;2929;50.810;8.342;2023-04-25T04:52:38;4.50;99.90
5806;DHT22;2929;50.810;8.342;2023-04-25T04:55:24;4.60;99.90
5806;DHT22;2929;50.810;8.342;2023-04-25T04:58:11;4.60;99.90
5806;DHT22;2929;50.810;8.342;2023-04-25T05:00:48;4.60;99.90
5806;DHT22;2929;50.810;8.342;2023-04-25T05:03:49;4.50;99.90
5806;DHT22;2929;50.810;8.342;2023-04-25T05:06:33;4.60;99.90
5806;DHT22;2929;50.810;8.342;2023-04-25T05:09:27;4.70;99.90
5806;DHT22;2929;50.810;8.342;2023-04-25T05:12:07;4.70;99.90
5806;DHT22;2929;50.810;8.342;2023-04-25T05:14:50;4.70;99.90
5806;DHT22;2929;50.810;8.342;2023-04-25T05:17:40;4.70;99.90
5806;DHT22;2929;50.810;8.342;2023-04-25T05:20:30;4.70;99.90
5806;DHT22;2929;50.810;8.342;2023-04-25T05:23:22;4.70;99.90
5806;DHT22;2929;50.810;8.342;2023-04-25T05:25:56;4.80;99.90
5806;DHT22;2929;50.810;8.342;2023-04-25T05:28:34;4.90;99.90
5806;DHT22;2929;50.810;8.342;2023-04-25T05:31:23;4.90;99.90
5806;DHT22;2929;50.810;8.342;2023-04-25T05:34:04;4.90;99.90
5806;DHT22;2929;50.810;8.342;2023-04-25T05:36:54;5.00;99.90
5806;DHT22;2929;50.810;8.342;2023-04-25T05:39:21;5.10;99.90
5806;DHT22;2929;50.810;8.342;2023-04-25T05:42:07;5.10;99.90
5806;DHT22;2929;50.810;8.342;2023-04-25T05:44:52;5.10;99.90
5806;DHT22;2929;50.810;8.342;2023-04-25T05:47:50;5.20;99.90
5806;DHT22;2929;50.810;8.342;2023-04-25T05:50:22;5.10;99.90
5806;DHT22;2929;50.810;8.342;2023-04-25T05:53:01;5.10;99.90
5806;DHT22;2929;50.810;8.342;2023-04-25T05:55:36;5.10;99.90
5806;DHT22;2929;50.810;8.342;2023-04-25T05:58:18;5.20;99.90
5806;DHT22;2929;50.810;8.342;2023-04-25T06:00:45;5.20;99.90
5806;DHT22;2929;50.810;8.342;2023-04-25T06:03:13;5.30;99.90
5806;DHT22;2929;50.810;8.342;2023-04-25T06:05:41;5.20;99.90
5806;DHT22;2929;50.810;8.342;2023-04-25T06:08:08;5.20;99.90
5806;DHT22;2929;50.810;8.342;2023-04-25T06:10:37;5.40;99.90
5806;DHT22;2929;50.810;8.342;2023-04-25T06:13:04;5.40;99.90
5806;DHT22;2929;50.810;8.342;2023-04-25T06:15:34;5.40;99.90
5806;DHT22;2929;50.810;8.342;2023-04-25T06:18:01;5.40;99.90
5806;DHT22;2929;50.810;8.342;2023-04-25T06:20:29;5.40;99.90
5806;DHT22;2929;50.810;8.342;2023-04-25T06:22:59;5.40;99.90
5806;DHT22;2929;50.810;8.342;2023-04-25T06:25:35;5.40;99.90
5806;DHT22;2929;50.810;8.342;2023-04-25T06:28:03;5.50;99.90
5806;DHT22;2929;50.810;8.342;2023-04-25T06:30:31;5.60;99.90
5806;DHT22;2929;50.810;8.342;2023-04-25T06:33:04;5.70;99.90
5806;DHT22;2929;50.810;8.342;2023-04-25T06:35:33;5.70;99.90
5806;DHT22;2929;50.810;8.342;2023-04-25T06:38:01;5.70;99.90
5806;DHT22;2929;50.810;8.342;2023-04-25T06:40:29;5.70;99.90
5806;DHT22;2929;50.810;8.342;2023-04-25T06:42:57;5.70;99.90
5806;DHT22;2929;50.810;8.342;2023-04-25T06:45:49;5.80;99.90
5806;DHT22;2929;50.810;8.342;2023-04-25T06:48:16;5.80;99.90
5806;DHT22;2929;50.810;8.342;2023-04-25T06:50:44;5.90;99.90
5806;DHT22;2929;50.810;8.342;2023-04-25T06:53:12;6.00;99.90
5806;DHT22;2929;50.810;8.342;2023-04-25T06:55:41;6.10;99.90
5806;DHT22;2929;50.810;8.342;2023-04-25T06:58:20;6.20;99.90
5806;DHT22;2929;50.810;8.342;2023-04-25T07:00:56;6.20;99.90
5806;DHT22;2929;50.810;8.342;2023-04-25T07:03:25;6.20;99.90
5806;DHT22;2929;50.810;8.342;2023-04-25T07:05:58;6.10;99.90
5806;DHT22;2929;50.810;8.342;2023-04-25T07:08:25;6.00;99.90
5806;DHT22;2929;50.810;8.342;2023-04-25T07:10:53;6.10;99.90
5806;DHT22;2929;50.810;8.342;2023-04-25T07:13:20;6.20;99.90
5806;DHT22;2929;50.810;8.342;2023-04-25T07:15:47;6.30;99.90
5806;DHT22;2929;50.810;8.342;2023-04-25T07:18:15;6.30;99.90
5806;DHT22;2929;50.810;8.342;2023-04-25T07:20:43;6.40;99.90
5806;DHT22;2929;50.810;8.342;2023-04-25T07:23:11;6.30;99.90
5806;DHT22;2929;50.810;8.342;2023-04-25T07:25:39;6.20;99.90
5806;DHT22;2929;50.810;8.342;2023-04-25T07:28:07;6.30;99.90
5806;DHT22;2929;50.810;8.342;2023-04-25T07:30:35;6.40;99.90
5806;DHT22;2929;50.810;8.342;2023-04-25T07:33:03;6.20;99.90
5806;DHT22;2929;50.810;8.342;2023-04-25T07:35:31;6.10;99.90
5806;DHT22;2929;50.810;8.342;2023-04-25T07:37:58;6.20;99.90
5806;DHT22;2929;50.810;8.342;2023-04-25T07:40:27;6.10;99.90
5806;DHT22;2929;50.810;8.342;2023-04-25T07:43:00;6.20;99.90
5806;DHT22;2929;50.810;8.342;2023-04-25T07:45:43;6.30;99.90
5806;DHT22;2929;50.810;8.342;2023-04-25T07:48:16;6.30;99.90
5806;DHT22;2929;50.810;8.342;2023-04-25T07:50:43;6.30;99.90
5806;DHT22;2929;50.810;8.342;2023-04-25T07:53:11;6.30;99.90
5806;DHT22;2929;50.810;8.342;2023-04-25T07:55:47;6.30;99.90
5806;DHT22;2929;50.810;8.342;2023-04-25T07:58:16;6.40;99.90
5806;DHT22;2929;50.810;8.342;2023-04-25T08:00:48;6.40;99.90
5806;DHT22;2929;50.810;8.342;2023-04-25T08:03:27;6.50;99.90
5806;DHT22;2929;50.810;8.342;2023-04-25T08:05:55;6.30;99.90
5806;DHT22;2929;50.810;8.342;2023-04-25T08:08:24;6.20;99.90
5806;DHT22;2929;50.810;8.342;2023-04-25T08:10:53;6.30;99.90
5806;DHT22;2929;50.810;8.342;2023-04-25T08:13:20;6.30;99.90
5806;DHT22;2929;50.810;8.342;2023-04-25T08:15:48;6.30;99.90
5806;DHT22;2929;50.810;8.342;2023-04-25T08:18:15;6.20;99.90
5806;DHT22;2929;50.810;8.342;2023-04-25T08:20:43;6.30;99.90
5806;DHT22;2929;50.810;8.342;2023-04-25T08:23:11;6.30;99.90
5806;DHT22;2929;50.810;8.342;2023-04-25T08:26:00;6.40;99.90
5806;DHT22;2929;50.810;8.342;2023-04-25T08:28:29;6.50;99.90
5806;DHT22;2929;50.810;8.342;2023-04-25T08:30:58;6.60;99.90
5806;DHT22;2929;50.810;8.342;2023-04-25T08:33:32;6.70;99.90
5806;DHT22;2929;50.810;8.342;2023-04-25T08:36:07;6.70;99.90
5806;DHT22;2929;50.810;8.342;2023-04-25T08:38:35;6.80;99.90
5806;DHT22;2929;50.810;8.342;2023-04-25T08:41:06;6.90;99.90
5806;DHT22;2929;50.810;8.342;2023-04-25T08:43:35;7.10;99.90
5806;DHT22;2929;50.810;8.342;2023-04-25T08:46:02;7.30;99.90
5806;DHT22;2929;50.810;8.342;2023-04-25T08:48:49;7.40;99.90
5806;DHT22;2929;50.810;8.342;2023-04-25T08:51:22;7.40;99.90
5806;DHT22;2929;50.810;8.342;2023-04-25T08:53:52;7.40;99.90
5806;DHT22;2929;50.810;8.342;2023-04-25T08:56:21;7.70;99.90
5806;DHT22;2929;50.810;8.342;2023-04-25T08:58:50;7.80;99.90
5806;DHT22;2929;50.810;8.342;2023-04-25T09:01:17;7.80;99.90
5806;DHT22;2929;50.810;8.342;2023-04-25T09:03:50;7.90;99.90
5806;DHT22;2929;50.810;8.342;2023-04-25T09:06:18;8.10;99.90
5806;DHT22;2929;50.810;8.342;2023-04-25T09:08:50;8.40;99.90
5806;DHT22;2929;50.810;8.342;2023-04-25T09:11:17;8.30;99.90
5806;DHT22;2929;50.810;8.342;2023-04-25T09:13:46;8.00;99.90
5806;DHT22;2929;50.810;8.342;2023-04-25T09:16:26;7.70;99.90
5806;DHT22;2929;50.810;8.342;2023-04-25T09:19:21;7.50;99.90
5806;DHT22;2929;50.810;8.342;2023-04-25T09:21:49;7.30;99.90
5806;DHT22;2929;50.810;8.342;2023-04-25T09:24:17;7.20;99.90
5806;DHT22;2929;50.810;8.342;2023-04-25T09:26:46;7.10;99.90
5806;DHT22;2929;50.810;8.342;2023-04-25T09:29:15;7.10;99.90
5806;DHT22;2929;50.810;8.342;2023-04-25T09:31:42;7.20;99.90
5806;DHT22;2929;50.810;8.342;2023-04-25T09:34:10;7.10;99.90
5806;DHT22;2929;50.810;8.342;2023-04-25T09:36:44;7.10;99.90
5806;DHT22;2929;50.810;8.342;2023-04-25T09:39:28;7.00;99.90
5806;DHT22;2929;50.810;8.342;2023-04-25T09:42:03;7.00;99.90
5806;DHT22;2929;50.810;8.342;2023-04-25T09:44:32;7.40;99.90
5806;DHT22;2929;50.810;8.342;2023-04-25T09:46:59;7.50;99.90
5806;DHT22;2929;50.810;8.342;2023-04-25T09:49:29;7.80;99.90
5806;DHT22;2929;50.810;8.342;2023-04-25T09:52:13;8.20;99.90
5806;DHT22;2929;50.810;8.342;2023-04-25T09:55:01;8.30;99.90
5806;DHT22;2929;50.810;8.342;2023-04-25T09:57:32;8.50;99.90
5806;DHT22;2929;50.810;8.342;2023-04-25T10:00:02;8.40;99.90
5806;DHT22;2929;50.810;8.342;2023-04-25T10:02:42;8.60;99.90
5806;DHT22;2929;50.810;8.342;2023-04-25T10:05:15;8.50;99.90
5806;DHT22;2929;50.810;8.342;2023-04-25T10:07:44;8.30;99.90
5806;DHT22;2929;50.810;8.342;2023-04-25T10:10:15;8.20;99.90
5806;DHT22;2929;50.810;8.342;2023-04-25T10:12:44;8.20;99.90
5806;DHT22;2929;50.810;8.342;2023-04-25T10:15:14;8.10;99.90
5806;DHT22;2929;50.810;8.342;2023-04-25T10:17:41;8.10;99.90
5806;DHT22;2929;50.810;8.342;2023-04-25T10:20:09;8.20;99.90
5806;DHT22;2929;50.810;8.342;2023-04-25T10:22:39;8.10;99.90
5806;DHT22;2929;50.810;8.342;2023-04-25T10:25:09;8.30;99.90
5806;DHT22;2929;50.810;8.342;2023-04-25T10:27:36;8.20;99.90
5806;DHT22;2929;50.810;8.342;2023-04-25T10:30:05;8.10;99.90
5806;DHT22;2929;50.810;8.342;2023-04-25T10:32:37;8.20;99.90
5806;DHT22;2929;50.810;8.342;2023-04-25T10:35:13;8.30;99.90
5806;DHT22;2929;50.810;8.342;2023-04-25T10:37:59;8.30;99.90
5806;DHT22;2929;50.810;8.342;2023-04-25T10:40:27;8.20;99.90
5806;DHT22;2929;50.810;8.342;2023-04-25T10:42:54;8.00;99.90
5806;DHT22;2929;50.810;8.342;2023-04-25T10:45:22;8.00;99.90
5806;DHT22;2929;50.810;8.342;2023-04-25T10:47:50;7.90;99.90
5806;DHT22;2929;50.810;8.342;2023-04-25T10:50:17;7.70;99.90
5806;DHT22;2929;50.810;8.342;2023-04-25T10:52:44;7.80;99.90
5806;DHT22;2929;50.810;8.342;2023-04-25T10:55:11;7.90;99.90
5806;DHT22;2929;50.810;8.342;2023-04-25T10:57:40;8.30;99.90
5806;DHT22;2929;50.810;8.342;2023-04-25T11:00:13;9.10;99.90
5806;DHT22;2929;50.810;8.342;2023-04-25T11:02:41;9.00;99.90
5806;DHT22;2929;50.810;8.342;2023-04-25T11:05:19;9.40;99.90
5806;DHT22;2929;50.810;8.342;2023-04-25T11:07:50;10.30;99.90
5806;DHT22;2929;50.810;8.342;2023-04-25T11:10:18;9.60;99.90
5806;DHT22;2929;50.810;8.342;2023-04-25T11:12:46;9.20;99.90
5806;DHT22;2929;50.810;8.342;2023-04-25T11:15:13;9.00;99.90
5806;DHT22;2929;50.810;8.342;2023-04-25T11:17:41;8.90;99.90
5806;DHT22;2929;50.810;8.342;2023-04-25T11:20:13;8.80;99.90
5806;DHT22;2929;50.810;8.342;2023-04-25T11:22:41;8.70;99.90
5806;DHT22;2929;50.810;8.342;2023-04-25T11:25:12;8.60;99.90
5806;DHT22;2929;50.810;8.342;2023-04-25T11:27:49;8.50;99.90
5806;DHT22;2929;50.810;8.342;2023-04-25T11:30:17;8.40;99.90
5806;DHT22;2929;50.810;8.342;2023-04-25T11:32:44;8.50;99.90
5806;DHT22;2929;50.810;8.342;2023-04-25T11:35:14;8.70;99.90
5806;DHT22;2929;50.810;8.342;2023-04-25T11:37:42;8.90;99.90
5806;DHT22;2929;50.810;8.342;2023-04-25T11:40:10;8.80;99.90
5806;DHT22;2929;50.810;8.342;2023-04-25T11:42:38;9.00;99.90
5806;DHT22;2929;50.810;8.342;2023-04-25T11:45:06;8.90;99.90
5806;DHT22;2929;50.810;8.342;2023-04-25T11:47:34;8.80;99.90
5806;DHT22;2929;50.810;8.342;2023-04-25T11:50:01;8.80;99.90
5806;DHT22;2929;50.810;8.342;2023-04-25T11:52:38;8.90;99.90
5806;DHT22;2929;50.810;8.342;2023-04-25T11:55:07;8.90;99.90
5806;DHT22;2929;50.810;8.342;2023-04-25T11:57:35;8.90;99.90
5806;DHT22;2929;50.810;8.342;2023-04-25T12:00:10;9.40;99.90
5806;DHT22;2929;50.810;8.342;2023-04-25T12:02:40;10.00;99.90
5806;DHT22;2929;50.810;8.342;2023-04-25T12:05:08;10.00;99.90
5806;DHT22;2929;50.810;8.342;2023-04-25T12:07:37;9.90;99.90
5806;DHT22;2929;50.810;8.342;2023-04-25T12:10:05;9.70;99.90
5806;DHT22;2929;50.810;8.342;2023-04-25T12:12:34;9.40;99.90
5806;DHT22;2929;50.810;8.342;2023-04-25T12:15:10;9.20;99.90
5806;DHT22;2929;50.810;8.342;2023-04-25T12:17:38;9.30;99.90
5806;DHT22;2929;50.810;8.342;2023-04-25T12:20:08;9.20;99.90
5806;DHT22;2929;50.810;8.342;2023-04-25T12:22:35;9.20;99.90
5806;DHT22;2929;50.810;8.342;2023-04-25T12:25:05;9.30;99.90
5806;DHT22;2929;50.810;8.342;2023-04-25T12:27:33;9.20;99.90
5806;DHT22;2929;50.810;8.342;2023-04-25T12:30:01;9.00;99.90
5806;DHT22;2929;50.810;8.342;2023-04-25T12:32:29;9.00;99.90
5806;DHT22;2929;50.810;8.342;2023-04-25T12:34:57;8.90;99.90
5806;DHT22;2929;50.810;8.342;2023-04-25T12:37:24;8.90;99.90
5806;DHT22;2929;50.810;8.342;2023-04-25T12:39:51;8.90;99.90
5806;DHT22;2929;50.810;8.342;2023-04-25T12:42:20;8.90;99.90
5806;DHT22;2929;50.810;8.342;2023-04-25T12:44:47;9.30;99.90
5806;DHT22;2929;50.810;8.342;2023-04-25T12:47:14;10.40;99.90
5806;DHT22;2929;50.810;8.342;2023-04-25T12:49:42;11.00;99.90
5806;DHT22;2929;50.810;8.342;2023-04-25T12:52:09;11.70;99.90
5806;DHT22;2929;50.810;8.342;2023-04-25T12:54:36;11.80;99.00
5806;DHT22;2929;50.810;8.342;2023-04-25T12:57:04;12.20;96.70
5806;DHT22;2929;50.810;8.342;2023-04-25T12:59:33;13.00;99.50
5806;DHT22;2929;50.810;8.342;2023-04-25T13:02:01;12.80;98.90
5806;DHT22;2929;50.810;8.342;2023-04-25T13:04:29;11.60;99.90
5806;DHT22;2929;50.810;8.342;2023-04-25T13:06:57;11.10;99.90
5806;DHT22;2929;50.810;8.342;2023-04-25T13:09:24;10.20;99.90
5806;DHT22;2929;50.810;8.342;2023-04-25T13:11:52;9.90;99.90
5806;DHT22;2929;50.810;8.342;2023-04-25T13:14:19;9.70;99.90
5806;DHT22;2929;50.810;8.342;2023-04-25T13:16:48;9.50;99.90
5806;DHT22;2929;50.810;8.342;2023-04-25T13:19:18;9.30;99.90
5806;DHT22;2929;50.810;8.342;2023-04-25T13:21:45;9.30;99.90
5806;DHT22;2929;50.810;8.342;2023-04-25T13:24:12;9.30;99.90
5806;DHT22;2929;50.810;8.342;2023-04-25T13:26:39;9.20;99.90
5806;DHT22;2929;50.810;8.342;2023-04-25T13:29:07;9.30;99.90
5806;DHT22;2929;50.810;8.342;2023-04-25T13:31:34;9.40;99.90
5806;DHT22;2929;50.810;8.342;2023-04-25T13:34:03;9.50;99.90
5806;DHT22;2929;50.810;8.342;2023-04-25T13:36:30;9.90;99.90
5806;DHT22;2929;50.810;8.342;2023-04-25T13:38:57;10.30;99.90
5806;DHT22;2929;50.810;8.342;2023-04-25T13:41:25;11.20;99.90
5806;DHT22;2929;50.810;8.342;2023-04-25T13:43:52;11.80;99.30
5806;DHT22;2929;50.810;8.342;2023-04-25T13:46:19;11.80;99.90
5806;DHT22;2929;50.810;8.342;2023-04-25T13:48:46;12.20;98.70
5806;DHT22;2929;50.810;8.342;2023-04-25T13:51:16;12.10;95.80
5806;DHT22;2929;50.810;8.342;2023-04-25T13:53:43;12.50;93.20
5806;DHT22;2929;50.810;8.342;2023-04-25T13:56:11;11.90;93.60
5806;DHT22;2929;50.810;8.342;2023-04-25T13:58:38;11.20;94.00
5806;DHT22;2929;50.810;8.342;2023-04-25T14:01:05;11.00;95.50
5806;DHT22;2929;50.810;8.342;2023-04-25T14:03:33;10.50;96.10
5806;DHT22;2929;50.810;8.342;2023-04-25T14:06:00;10.40;97.80
5806;DHT22;2929;50.810;8.342;2023-04-25T14:08:29;10.30;97.10
5806;DHT22;2929;50.810;8.342;2023-04-25T14:10:57;10.20;97.00
5806;DHT22;2929;50.810;8.342;2023-04-25T14:13:24;10.20;97.20
5806;DHT22;2929;50.810;8.342;2023-04-25T14:15:51;10.70;96.50
5806;DHT22;2929;50.810;8.342;2023-04-25T14:18:19;11.40;95.80
5806;DHT22;2929;50.810;8.342;2023-04-25T14:20:46;11.50;95.50
5806;DHT22;2929;50.810;8.342;2023-04-25T14:23:13;11.40;94.30
5806;DHT22;2929;50.810;8.342;2023-04-25T14:25:41;11.50;94.20
5806;DHT22;2929;50.810;8.342;2023-04-25T14:28:10;11.20;95.40
5806;DHT22;2929;50.810;8.342;2023-04-25T14:30:37;10.80;96.00
5806;DHT22;2929;50.810;8.342;2023-04-25T14:33:04;10.50;97.70
5806;DHT22;2929;50.810;8.342;2023-04-25T14:35:31;10.60;97.10
5806;DHT22;2929;50.810;8.342;2023-04-25T14:37:59;10.50;98.90
5806;DHT22;2929;50.810;8.342;2023-04-25T14:40:27;10.40;99.90
5806;DHT22;2929;50.810;8.342;2023-04-25T14:42:56;10.20;97.90
5806;DHT22;2929;50.810;8.342;2023-04-25T14:45:23;10.90;99.50
5806;DHT22;2929;50.810;8.342;2023-04-25T14:47:50;11.80;97.90
5806;DHT22;2929;50.810;8.342;2023-04-25T14:50:18;12.00;95.90
5806;DHT22;2929;50.810;8.342;2023-04-25T14:52:45;12.20;95.20
5806;DHT22;2929;50.810;8.342;2023-04-25T14:55:12;12.10;95.30
5806;DHT22;2929;50.810;8.342;2023-04-25T14:57:39;11.50;94.30
5806;DHT22;2929;50.810;8.342;2023-04-25T15:00:09;11.00;95.60
5806;DHT22;2929;50.810;8.342;2023-04-25T15:02:39;10.60;96.10
5806;DHT22;2929;50.810;8.342;2023-04-25T15:05:07;10.30;96.80
5806;DHT22;2929;50.810;8.342;2023-04-25T15:07:35;10.20;97.70
5806;DHT22;2929;50.810;8.342;2023-04-25T15:10:03;10.10;95.90
5806;DHT22;2929;50.810;8.342;2023-04-25T15:12:31;10.60;96.60
5806;DHT22;2929;50.810;8.342;2023-04-25T15:14:58;10.50;96.60
5806;DHT22;2929;50.810;8.342;2023-04-25T15:17:27;10.40;96.60
5806;DHT22;2929;50.810;8.342;2023-04-25T15:19:56;10.30;97.30
5806;DHT22;2929;50.810;8.342;2023-04-25T15:22:23;10.30;97.20
5806;DHT22;2929;50.810;8.342;2023-04-25T15:24:51;10.50;97.50
5806;DHT22;2929;50.810;8.342;2023-04-25T15:27:18;11.00;97.60
5806;DHT22;2929;50.810;8.342;2023-04-25T15:29:45;11.00;97.30
5806;DHT22;2929;50.810;8.342;2023-04-25T15:32:12;10.50;97.00
5806;DHT22;2929;50.810;8.342;2023-04-25T15:34:41;10.20;97.10
5806;DHT22;2929;50.810;8.342;2023-04-25T15:37:09;10.00;97.70
5806;DHT22;2929;50.810;8.342;2023-04-25T15:39:38;9.90;99.20
5806;DHT22;2929;50.810;8.342;2023-04-25T15:42:07;9.50;99.40
5806;DHT22;2929;50.810;8.342;2023-04-25T15:44:34;9.50;99.90
5806;DHT22;2929;50.810;8.342;2023-04-25T15:47:01;9.70;99.90
5806;DHT22;2929;50.810;8.342;2023-04-25T15:49:28;9.60;99.60
5806;DHT22;2929;50.810;8.342;2023-04-25T15:51:57;9.90;97.00
5806;DHT22;2929;50.810;8.342;2023-04-25T15:54:24;10.50;97.70
5806;DHT22;2929;50.810;8.342;2023-04-25T15:56:51;11.20;96.70
5806;DHT22;2929;50.810;8.342;2023-04-25T15:59:18;11.40;94.70
5806;DHT22;2929;50.810;8.342;2023-04-25T16:01:45;11.90;94.10
5806;DHT22;2929;50.810;8.342;2023-04-25T16:04:13;12.20;94.30
5806;DHT22;2929;50.810;8.342;2023-04-25T16:06:42;12.40;91.70
5806;DHT22;2929;50.810;8.342;2023-04-25T16:09:11;12.40;93.50
5806;DHT22;2929;50.810;8.342;2023-04-25T16:11:38;12.30;91.70
5806;DHT22;2929;50.810;8.342;2023-04-25T16:14:05;12.50;92.20
5806;DHT22;2929;50.810;8.342;2023-04-25T16:16:33;12.40;92.20
5806;DHT22;2929;50.810;8.342;2023-04-25T16:19:00;12.30;91.50
5806;DHT22;2929;50.810;8.342;2023-04-25T16:21:27;12.50;91.50
5806;DHT22;2929;50.810;8.342;2023-04-25T16:23:55;12.00;91.10
5806;DHT22;2929;50.810;8.342;2023-04-25T16:26:24;11.30;93.10
5806;DHT22;2929;50.810;8.342;2023-04-25T16:28:51;10.90;94.80
5806;DHT22;2929;50.810;8.342;2023-04-25T16:31:18;10.60;95.90
5806;DHT22;2929;50.810;8.342;2023-04-25T16:33:45;10.30;97.70